Time;durP1;ratioP1;P1;durP2;ratioP2;P2;SDS_P1;SDS_P2;PMS_P1;PMS_P2;Temp;Humidity;BMP_temperature;BMP_pressure;BME280_temperature;BME280_humidity;BME280_pressure;Samples;Min_cycle;Max_cycle;Signal;HPM_P1;HPM_P2
2022/07/20 14:43:22;;;;;;;;;;;;;;;;;;;;;
2022/07/20 14:46:24;;;;;;;;;;;;;;;;;;;;;
2022/07/20 14:49:15;;;;;;;;;;;;;;;;;;;;;
2022/07/20 14:52:40;;;;;;;5.40;3.80;;;29.50;67.80;;;;;;6250172;23;20071;-88
2022/07/20 14:59:06;;;;;;;;;;;;;;;;;;;;;
2022/07/20 15:02:21;;;;;;;7.20;4.63;;;29.40;68.20;;;;;;6098937;23;20516;-89
2022/07/20 18:22:01;;;;;;;8.60;7.40;;;27.50;73.40;;;;;;6318499;22;1328992;-89
2022/07/20 18:24:27;;;;;;;8.48;7.10;;;27.50;73.70;;;;;;6357686;22;20017;-89
2022/07/20 18:26:53;;;;;;;11.73;7.97;;;27.40;73.80;;;;;;6357187;22;20013;-88
2022/07/20 18:29:20;;;;;;;8.10;7.30;;;27.40;74.00;;;;;;6358210;22;20016;-87
2022/07/20 18:31:50;;;;;;;9.93;8.07;;;27.40;74.10;;;;;;6356874;22;20052;-90
2022/07/20 18:34:18;;;;;;;8.35;7.38;;;27.30;74.30;;;;;;6358331;22;20418;-89
2022/07/20 18:37:04;;;;;;;;;;;;;;;;;;;;;
2022/07/20 18:39:44;;;;;;;9.20;8.02;;;27.30;74.50;;;;;;6386099;22;20018;-90
2022/07/20 18:42:13;;;;;;;9.35;8.40;;;27.20;74.50;;;;;;6358624;22;20420;-92
2022/07/20 18:44:44;;;;;;;10.27;8.63;;;27.20;74.60;;;;;;6356661;22;20373;-87
2022/07/20 18:47:09;;;;;;;;;;;27.10;74.60;;;;;;6307471;22;20038;-90
2022/07/20 18:49:38;;;;;;;9.55;8.32;;;27.10;74.70;;;;;;6358327;22;19926;-87
2022/07/20 18:52:08;;;;;;;10.30;8.20;;;27.00;75.00;;;;;;6332181;22;20496;-90
2022/07/20 18:54:53;;;;;;;9.32;8.23;;;27.00;75.10;;;;;;6357835;22;19998;-91
2022/07/20 18:57:30;;;;;;;9.52;8.10;;;27.00;75.30;;;;;;6335045;22;20073;-90
2022/07/20 19:00:02;;;;;;;9.63;7.88;;;27.00;75.50;;;;;;6352704;22;19995;-90
2022/07/20 19:02:28;;;;;;;8.80;7.88;;;26.90;75.60;;;;;;6357489;22;19998;-89
2022/07/20 19:05:00;;;;;;;9.65;8.50;;;26.90;75.80;;;;;;6356926;22;20003;-91
2022/07/20 19:07:33;;;;;;;10.82;9.02;;;26.80;75.90;;;;;;6382278;22;20003;-87
2022/07/20 19:10:04;;;;;;;12.85;8.65;;;26.80;76.20;;;;;;6393402;22;20002;-89
2022/07/20 19:12:33;;;;;;;10.57;7.78;;;26.80;76.30;;;;;;6370694;22;20003;-88
2022/07/20 19:14:59;;;;;;;9.77;8.07;;;26.70;76.50;;;;;;6346599;22;20001;-90
2022/07/20 19:17:24;;;;;;;11.27;8.60;;;26.70;76.80;;;;;;6371854;22;19998;-90
2022/07/20 19:19:50;;;;;;;11.32;8.45;;;26.60;77.60;;;;;;6371074;22;19994;-88
2022/07/20 19:22:16;;;;;;;9.93;8.52;;;26.60;77.50;;;;;;6369067;22;20011;-90
2022/07/20 19:24:46;;;;;;;9.30;8.10;;;26.60;77.80;;;;;;6354260;22;20002;-89
2022/07/20 19:27:14;;;;;;;9.85;8.45;;;26.60;77.90;;;;;;6323470;22;20067;-88
2022/07/20 19:29:40;;;;;;;10.13;8.65;;;26.50;77.90;;;;;;6351196;22;20012;-89
2022/07/20 19:32:16;;;;;;;;;;;;;;;;;;;;;
2022/07/20 19:34:44;;;;;;;10.50;7.97;;;26.50;78.20;;;;;;6354022;22;20392;-90
2022/07/20 19:37:25;;;;;;;;;;;;;;;;;;;;;
2022/07/20 19:40:27;;;;;;;;;;;;;;;;;;;;;
2022/07/20 19:42:56;;;;;;;10.70;8.18;;;26.40;79.10;;;;;;6379447;22;20014;-89
2022/07/20 19:45:22;;;;;;;11.30;8.32;;;26.30;78.20;;;;;;6324725;22;20032;-89
2022/07/20 19:47:48;;;;;;;12.25;8.52;;;26.30;78.10;;;;;;6350832;22;20013;-89
